Time;durP1;ratioP1;P1;durP2;ratioP2;P2;SDS_P1;SDS_P2;PMS_P1;PMS_P2;Temp;Humidity;BMP_temperature;BMP_pressure;BME280_temperature;BME280_humidity;BME280_pressure;Samples;Min_cycle;Max_cycle;Signal;HPM_P1;HPM_P2
2021/12/13 00:02:16;;;;;;;;;;;;;;;18.27;55.88;102482.44;4959476;29;20009;-91
2021/12/13 00:04:44;;;;;;;;;;;;;;;18.37;56.77;102478.25;4955072;29;19910;-91
2021/12/13 00:07:14;;;;;;;;;;;;;;;18.32;57.16;102480.31;4952921;29;19918;-91
2021/12/13 00:09:41;;;;;;;;;;;;;;;17.76;58.54;102479.59;4950985;29;20155;-92
2021/12/13 00:12:07;;;;;;;;;;;;;;;17.71;59.80;102485.31;4950728;29;19918;-92
2021/12/13 00:14:35;;;;;;;;;;;;;;;17.14;61.38;102495.50;4950668;29;19926;-92
2021/12/13 00:17:15;;;;;;;;;;;;;;;17.17;60.40;102490.75;4950480;29;19925;-92
2021/12/13 00:19:55;;;;;;;;;;;;;;;17.57;58.78;102489.72;4964501;28;19969;-92
2021/12/13 00:22:26;;;;;;;;;;;;;;;17.25;59.82;102497.72;4948411;29;19921;-92
2021/12/13 00:24:52;;;;;;;;;;;;;;;17.75;57.82;102486.03;4947393;29;19922;-91
2021/12/13 00:27:19;;;;;;;;;;;;;;;17.60;58.52;102482.25;4948833;29;19922;-92
2021/12/13 00:30:04;;;;;;;;;;;;;;;17.99;56.67;102483.91;4950063;29;19918;-92
2021/12/13 00:32:33;;;;;;;;;;;;;;;17.38;57.58;102490.66;4966383;28;19942;-92
2021/12/13 00:34:59;;;;;;;;;;;;;;;18.70;54.81;102482.81;4967055;28;19959;-92
2021/12/13 00:37:30;;;;;;;;;;;;;;;17.61;57.33;102489.50;4930499;29;19965;-92
2021/12/13 00:40:17;;;;;;;;;;;;;;;18.08;56.65;102487.13;4928441;29;19907;-92
2021/12/13 00:42:45;;;;;;;;;;;;;;;17.82;57.05;102483.88;4929251;29;19951;-92
2021/12/13 00:45:12;;;;;;;;;;;;;;;17.43;57.12;102493.16;4932434;29;19919;-92
2021/12/13 00:47:38;;;;;;;;;;;;;;;16.83;60.26;102486.00;4933099;29;19930;-92
2021/12/13 00:50:27;;;;;;;;;;;;;;;17.89;56.72;102485.38;4930195;29;19910;-93
2021/12/13 00:52:53;;;;;;;;;;;;;;;18.10;55.81;102488.84;4919914;29;19926;-92
2021/12/13 00:55:29;;;;;;;;;;;;;;;17.55;56.96;102489.81;4927853;29;19916;-92
2021/12/13 00:58:10;;;;;;;;;;;;;;;17.96;55.50;102495.03;4928084;29;19919;-92
2021/12/13 01:00:41;;;;;;;;;;;;;;;17.05;59.00;102501.44;4927643;29;19919;-92
2021/12/13 01:03:18;;;;;;;;;;;;;;;18.26;54.47;102494.34;4930540;29;19919;-92
2021/12/13 01:05:49;;;;;;;;;;;;;;;17.88;55.96;102492.66;4931220;29;19947;-93
2021/12/13 01:08:33;;;;;;;;;;;;;;;18.07;55.16;102502.66;4930666;29;19966;-93
2021/12/13 01:11:08;;;;;;;;;;;;;;;16.70;59.36;102509.41;4932068;29;19951;-93
2021/12/13 01:13:33;;;;;;;;;;;;;;;17.87;54.61;102501.84;4931470;29;19974;-93
2021/12/13 01:16:00;;;;;;;;;;;;;;;18.09;54.26;102514.44;4931161;29;19915;-93
2021/12/13 01:18:34;;;;;;;;;;;;;;;18.15;54.12;102515.97;4930358;29;19962;-93
2021/12/13 01:21:17;;;;;;;;;;;;;;;18.09;53.10;102516.28;4931421;29;19954;-94
2021/12/13 01:23:48;;;;;;;;;;;;;;;18.15;53.75;102513.25;4931147;29;19920;-93
2021/12/13 01:26:36;;;;;;;;;;;;;;;18.73;52.25;102512.78;4930932;29;19942;-93
2021/12/13 01:29:06;;;;;;;;;;;;;;;18.53;53.51;102504.78;4930829;29;19930;-93
2021/12/13 01:31:37;;;;;;;;;;;;;;;19.02;51.47;102509.41;4930506;29;19923;-93
2021/12/13 01:34:03;;;;;;;;;;;;;;;19.02;51.30;102509.41;4930696;29;19919;-95
2021/12/13 01:36:32;;;;;;;;;;;;;;;19.20;50.66;102500.13;4931793;29;19916;-93
2021/12/13 01:39:00;;;;;;;;;;;;;;;18.88;51.24;102510.19;4932010;29;19978;-93
2021/12/13 01:41:40;;;;;;;;;;;;;;;19.28;49.98;102513.44;4932348;29;20405;-94
2021/12/13 01:44:11;;;;;;;;;;;;;;;18.27;52.24;102517.16;4932790;29;19920;-93
2021/12/13 01:46:38;;;;;;;;;;;;;;;17.86;53.71;102519.25;4935724;29;19923;-94
2021/12/13 01:49:04;;;;;;;;;;;;;;;18.38;53.36;102520.22;4937379;29;19927;-93
2021/12/13 01:51:33;;;;;;;;;;;;;;;18.05;53.67;102521.03;4934827;29;19926;-93
2021/12/13 01:53:58;;;;;;;;;;;;;;;17.98;53.96;102517.75;4931172;29;19919;-92
2021/12/13 01:56:41;;;;;;;;;;;;;;;17.57;55.01;102520.72;4929965;29;19920;-93
2021/12/13 01:59:27;;;;;;;;;;;;;;;17.38;54.90;102525.31;4929851;29;19919;-92
2021/12/13 02:01:52;;;;;;;;;;;;;;;17.07;57.08;102518.63;4930423;29;19923;-92
2021/12/13 02:04:19;;;;;;;;;;;;;;;17.11;56.51;102520.28;4929464;29;19966;-93
2021/12/13 02:06:47;;;;;;;;;;;;;;;16.92;57.41;102523.00;4929632;29;19919;-93
2021/12/13 02:09:18;;;;;;;;;;;;;;;17.43;55.17;102526.88;4931478;29;19919;-91
2021/12/13 02:11:47;;;;;;;;;;;;;;;17.33;55.28;102529.19;4930006;29;20326;-93
2021/12/13 02:14:16;;;;;;;;;;;;;;;16.94;58.03;102532.91;4928807;29;19948;-93
2021/12/13 02:16:58;;;;;;;;;;;;;;;17.53;54.94;102530.94;4930355;29;19941;-93
2021/12/13 02:19:38;;;;;;;;;;;;;;;17.55;55.62;102528.13;4929690;29;19954;-93
2021/12/13 02:22:13;;;;;;;;;;;;;;;17.15;56.15;102528.25;4929963;29;19919;-92
2021/12/13 02:24:38;;;;;;;;;;;;;;;17.45;55.31;102535.00;4913366;29;19927;-93
2021/12/13 02:27:04;;;;;;;;;;;;;;;17.82;54.18;102530.44;4929649;29;20016;-93
2021/12/13 02:29:36;;;;;;;;;;;;;;;17.57;55.21;102531.66;4930054;29;20352;-93
2021/12/13 02:32:03;;;;;;;;;;;;;;;17.21;56.30;102534.38;4930334;29;19923;-94
2021/12/13 02:34:30;;;;;;;;;;;;;;;17.96;54.40;102532.47;4929495;29;19942;-93
2021/12/13 02:36:56;;;;;;;;;;;;;;;17.26;56.33;102538.66;4929146;29;19923;-94
2021/12/13 02:39:21;;;;;;;;;;;;;;;17.91;54.11;102545.53;4929613;29;19933;-93
2021/12/13 02:41:47;;;;;;;;;;;;;;;17.05;56.92;102545.19;4929487;29;19923;-94
2021/12/13 02:44:17;;;;;;;;;;;;;;;17.98;53.93;102531.44;4929373;29;19919;-94
2021/12/13 02:46:44;;;;;;;;;;;;;;;18.14;53.34;102539.72;4929571;29;19934;-94
2021/12/13 02:49:12;;;;;;;;;;;;;;;17.28;56.33;102539.47;4929902;29;19908;-94
2021/12/13 02:51:46;;;;;;;;;;;;;;;17.95;54.72;102531.59;4929167;29;19978;-94
2021/12/13 02:54:26;;;;;;;;;;;;;;;17.86;54.98;102526.53;4944659;29;19974;-94
2021/12/13 02:56:54;;;;;;;;;;;;;;;17.16;56.66;102527.25;4929346;29;19923;-93
2021/12/13 02:59:21;;;;;;;;;;;;;;;16.67;58.41;102524.13;4931097;29;19919;-94
2021/12/13 03:01:46;;;;;;;;;;;;;;;16.93;57.74;102531.13;4940226;29;19948;-94
2021/12/13 03:04:13;;;;;;;;;;;;;;;16.88;58.31;102527.72;4941381;29;19907;-93
2021/12/13 03:06:43;;;;;;;;;;;;;;;17.20;56.60;102527.16;4941001;29;19922;-93
2021/12/13 03:09:11;;;;;;;;;;;;;;;17.15;57.59;102527.34;4951518;29;20378;-94
2021/12/13 03:11:37;;;;;;;;;;;;;;;17.27;56.71;102531.34;4935049;29;19903;-93
2021/12/13 03:14:23;;;;;;;;;;;;;;;16.73;59.01;102533.91;4930360;29;19929;-93
2021/12/13 03:16:52;;;;;;;;;;;;;;;17.18;57.15;102522.63;4929909;29;19926;-94
2021/12/13 03:19:24;;;;;;;;;;;;;;;17.19;57.10;102518.03;4929752;29;19986;-94
2021/12/13 03:22:13;;;;;;;;;;;;;;;17.40;55.20;102520.69;4928244;29;20122;-94
2021/12/13 03:24:47;;;;;;;;;;;;;;;17.15;56.45;102522.78;4928738;29;19919;-93
2021/12/13 03:27:31;;;;;;;;;;;;;;;16.87;57.99;102527.81;4944834;29;19919;-93
2021/12/13 03:30:00;;;;;;;;;;;;;;;16.80;58.03;102530.78;4929434;29;19919;-93
2021/12/13 03:32:35;;;;;;;;;;;;;;;17.22;55.42;102525.22;4928798;29;19991;-94
2021/12/13 03:35:08;;;;;;;;;;;;;;;16.92;57.37;102532.06;4944486;29;19967;-94
2021/12/13 03:37:34;;;;;;;;;;;;;;;16.80;57.52;102525.34;4928768;29;19923;-94
2021/12/13 03:40:01;;;;;;;;;;;;;;;17.13;56.77;102521.94;4928811;29;19947;-95
2021/12/13 03:42:28;;;;;;;;;;;;;;;17.16;56.36;102520.91;4929149;29;19939;-95
2021/12/13 03:44:56;;;;;;;;;;;;;;;16.57;58.48;102515.44;4928439;29;19926;-93
2021/12/13 03:47:23;;;;;;;;;;;;;;;16.69;58.52;102513.13;4929200;29;19919;-94
2021/12/13 03:49:53;;;;;;;;;;;;;;;16.93;57.87;102511.97;4928629;29;19919;-94
2021/12/13 03:52:20;;;;;;;;;;;;;;;16.75;57.77;102515.56;4929824;29;19919;-95
2021/12/13 03:54:46;;;;;;;;;;;;;;;16.73;58.23;102512.91;4928883;29;20013;-93
2021/12/13 03:57:12;;;;;;;;;;;;;;;17.10;56.08;102515.75;4928515;29;19923;-93
2021/12/13 03:59:41;;;;;;;;;;;;;;;16.95;57.12;102512.81;4928419;29;19962;-94
2021/12/13 04:02:09;;;;;;;;;;;;;;;17.05;56.03;102515.09;4928635;29;19919;-93
2021/12/13 04:04:34;;;;;;;;;;;;;;;17.33;55.32;102521.00;4927278;29;19930;-93
2021/12/13 04:07:05;;;;;;;;;;;;;;;17.21;55.33;102518.88;4927777;29;19925;-93
2021/12/13 04:09:31;;;;;;;;;;;;;;;16.86;56.67;102506.84;4944001;29;19919;-93
2021/12/13 04:11:58;;;;;;;;;;;;;;;16.91;55.96;102505.72;4927924;29;20186;-93
2021/12/13 04:14:29;;;;;;;;;;;;;;;17.03;56.36;102506.97;4927787;29;19919;-93
2021/12/13 04:17:06;;;;;;;;;;;;;;;17.09;56.52;102511.22;4928711;29;20396;-93
2021/12/13 04:19:51;;;;;;;;;;;;;;;16.63;56.80;102511.56;4928851;29;19930;-94
2021/12/13 04:22:18;;;;;;;;;;;;;;;17.37;54.54;102508.03;4927595;29;19923;-93
2021/12/13 04:24:53;;;;;;;;;;;;;;;16.93;55.39;102503.78;4927656;29;20329;-93
2021/12/13 04:27:27;;;;;;;;;;;;;;;17.44;53.73;102508.63;4943758;29;19938;-93
2021/12/13 04:29:56;;;;;;;;;;;;;;;17.14;54.47;102506.44;4927309;29;19981;-93
2021/12/13 04:32:31;;;;;;;;;;;;;;;16.43;56.50;102507.91;4927639;29;19915;-93
2021/12/13 04:34:58;;;;;;;;;;;;;;;16.46;56.92;102509.63;4943889;29;19930;-93
2021/12/13 04:37:25;;;;;;;;;;;;;;;17.10;55.63;102516.63;4929762;29;20010;-92
2021/12/13 04:39:52;;;;;;;;;;;;;;;16.84;55.91;102524.19;4931602;29;19946;-92
2021/12/13 04:42:19;;;;;;;;;;;;;;;17.05;54.58;102524.19;4931911;29;19926;-93
2021/12/13 04:44:51;;;;;;;;;;;;;;;16.91;55.48;102519.38;4932095;29;19919;-92
2021/12/13 04:47:19;;;;;;;;;;;;;;;16.79;55.25;102517.19;4932333;29;19947;-94
2021/12/13 04:49:47;;;;;;;;;;;;;;;17.25;54.36;102522.31;4933220;29;19939;-93
2021/12/13 04:52:14;;;;;;;;;;;;;;;17.16;54.12;102519.06;4937355;29;19947;-93
2021/12/13 04:54:41;;;;;;;;;;;;;;;16.39;55.90;102528.09;4937093;29;19919;-94
2021/12/13 04:57:07;;;;;;;;;;;;;;;17.15;54.33;102524.59;4935071;29;19919;-93
2021/12/13 04:59:32;;;;;;;;;;;;;;;17.17;53.85;102509.03;4935046;29;19974;-93
2021/12/13 05:01:59;;;;;;;;;;;;;;;16.70;55.30;102517.59;4935214;29;19919;-93
2021/12/13 05:04:29;;;;;;;;;;;;;;;16.33;57.02;102520.19;4935687;29;19907;-93
2021/12/13 05:06:56;;;;;;;;;;;;;;;16.87;55.38;102527.81;4934205;29;20014;-93
2021/12/13 05:09:22;;;;;;;;;;;;;;;16.42;56.19;102521.63;4932718;29;19923;-93
2021/12/13 05:11:54;;;;;;;;;;;;;;;17.00;55.09;102526.25;4931710;29;20013;-93
2021/12/13 05:14:37;;;;;;;;;;;;;;;16.29;56.43;102535.84;4947853;29;19919;-93
2021/12/13 05:17:10;;;;;;;;;;;;;;;16.14;57.29;102531.06;4930194;29;19925;-93
2021/12/13 05:19:38;;;;;;;;;;;;;;;16.93;55.03;102536.59;4932118;28;19975;-94
2021/12/13 05:22:08;;;;;;;;;;;;;;;17.33;52.81;102542.88;4934197;29;19907;-94
2021/12/13 05:24:40;;;;;;;;;;;;;;;17.41;52.94;102531.56;4934437;29;19919;-94
2021/12/13 05:27:08;;;;;;;;;;;;;;;16.99;54.42;102541.75;4948465;29;19943;-94
2021/12/13 05:29:35;;;;;;;;;;;;;;;17.42;52.12;102536.06;4919045;29;19923;-94
2021/12/13 05:32:15;;;;;;;;;;;;;;;17.05;53.40;102526.91;4975873;23;19951;-94
2021/12/13 05:34:46;;;;;;;;;;;;;;;17.18;53.30;102527.19;4916646;29;19962;-94
2021/12/13 05:37:12;;;;;;;;;;;;;;;16.82;54.49;102526.13;4933209;29;19923;-94
2021/12/13 05:39:52;;;;;;;;;;;;;;;17.41;52.14;102530.66;4916873;29;19934;-94
2021/12/13 05:44:56;;;;;;;;;;;;;;;16.99;53.62;102524.47;4974081;29;19992;-93
2021/12/13 05:47:50;;;;;;;;;;;;;;;17.59;51.94;102523.38;5026998;23;19949;-96
2021/12/13 05:50:44;;;;;;;;;;;;;;;17.63;51.12;102525.00;4955084;29;19919;-95
2021/12/13 05:53:29;;;;;;;;;;;;;;;17.08;53.32;102532.25;5174417;23;19926;-94
2021/12/13 05:56:04;;;;;;;;;;;;;;;16.98;53.79;102544.56;4974603;29;19926;-95
2021/12/13 05:58:47;;;;;;;;;;;;;;;17.33;52.83;102534.66;4972524;29;19954;-95
2021/12/13 06:03:46;;;;;;;;;;;;;;;16.91;54.19;102543.06;4997629;23;19926;-94
2021/12/13 06:06:24;;;;;;;;;;;;;;;16.32;54.96;102534.81;4979358;28;19923;-95
2021/12/13 06:08:52;;;;;;;;;;;;;;;16.25;55.46;102534.19;4980113;28;19958;-93
2021/12/13 06:11:32;;;;;;;;;;;;;;;16.94;53.43;102537.47;4982367;28;19954;-94
2021/12/13 06:14:14;;;;;;;;;;;;;;;16.43;54.91;102524.28;4980509;28;19934;-94
2021/12/13 06:17:03;;;;;;;;;;;;;;;17.64;51.83;102533.13;4978170;28;19993;-95
2021/12/13 06:22:18;;;;;;;;;;;;;;;17.20;52.50;102538.97;5328482;23;19926;-93
2021/12/13 06:24:53;;;;;;;;;;;;;;;17.60;51.08;102541.56;4971348;28;19903;-93
2021/12/13 06:27:28;;;;;;;;;;;;;;;17.49;52.08;102542.13;4970739;28;19906;-92
2021/12/13 06:30:06;;;;;;;;;;;;;;;17.54;51.92;102545.50;4973322;23;19986;-94
2021/12/13 06:32:37;;;;;;;;;;;;;;;17.29;52.04;102548.56;4967807;28;19966;-93
2021/12/13 06:35:26;;;;;;;;;;;;;;;17.67;50.91;102537.56;4968546;28;20262;-94
2021/12/13 06:38:02;;;;;;;;;;;;;;;16.54;54.59;102540.19;4968879;28;19906;-95
2021/12/13 06:40:29;;;;;;;;;;;;;;;17.22;53.02;102537.03;4969008;29;19933;-94
2021/12/13 06:42:56;;;;;;;;;;;;;;;16.69;53.62;102540.44;4969564;28;20273;-94
2021/12/13 06:45:42;;;;;;;;;;;;;;;16.72;54.80;102543.03;4969820;29;19918;-95
2021/12/13 06:48:08;;;;;;;;;;;;;;;16.09;56.20;102552.22;4971772;28;20005;-93
2021/12/13 06:50:49;;;;;;;;;;;;;;;16.69;54.46;102537.72;4952191;29;20270;-93
2021/12/13 06:53:19;;;;;;;;;;;;;;;17.01;53.49;102552.63;4961847;29;19923;-93
2021/12/13 06:55:45;;;;;;;;;;;;;;;17.14;52.96;102551.06;4966973;28;19932;-93
2021/12/13 06:58:33;;;;;;;;;;;;;;;16.74;53.56;102552.94;4958392;28;19958;-93
2021/12/13 07:01:06;;;;;;;;;;;;;;;17.25;52.74;102561.50;4949548;29;19931;-89
2021/12/13 07:03:34;;;;;;;;;;;;;;;16.92;53.58;102569.47;4962908;29;19946;-88
2021/12/13 07:06:04;;;;;;;;;;;;;;;17.94;51.47;102568.16;4945194;29;19919;-93
2021/12/13 07:08:34;;;;;;;;;;;;;;;16.93;53.17;102574.88;4951315;29;19918;-89
2021/12/13 07:11:07;;;;;;;;;;;;;;;17.27;52.31;102573.28;4950248;29;19923;-90
2021/12/13 07:13:47;;;;;;;;;;;;;;;17.04;54.32;102573.47;4951758;29;19919;-88
2021/12/13 07:16:20;;;;;;;;;;;;;;;16.51;54.90;102567.66;4968592;29;19930;-91
2021/12/13 07:18:52;;;;;;;;;;;;;;;16.35;57.39;102561.09;4949451;28;19927;-89
2021/12/13 07:21:32;;;;;;;;;;;;;;;16.74;55.11;102571.16;4950134;29;19919;-91
2021/12/13 07:24:07;;;;;;;;;;;;;;;16.54;54.93;102581.16;4951089;29;19919;-87
2021/12/13 07:26:41;;;;;;;;;;;;;;;16.25;55.84;102582.47;4960305;29;19982;-86
2021/12/13 07:29:48;;;;;;;;;;;;;;;16.40;54.26;102580.91;4970338;29;19949;-89
2021/12/13 07:34:57;;;;;;;;;;;;;;;16.56;55.17;102598.41;5069789;23;19926;-86
2021/12/13 07:40:39;;;;;;;;;;;;;;;16.85;54.31;102593.44;3552905;23;19921;-91
2021/12/13 07:43:27;;;;;;;;;;;;;;;17.39;52.47;102598.25;4927382;29;19931;-91
2021/12/13 07:46:02;;;;;;;;;;;;;;;17.11;53.35;102599.56;5128205;23;20280;-91
2021/12/13 07:48:38;;;;;;;;;;;;;;;17.00;53.96;102598.22;4967667;28;19930;-93
2021/12/13 07:51:03;;;;;;;;;;;;;;;16.53;55.21;102608.56;4951942;29;20284;-92
2021/12/13 07:53:35;;;;;;;;;;;;;;;17.41;52.46;102601.78;4965614;28;19926;-90
2021/12/13 07:56:03;;;;;;;;;;;;;;;16.91;53.34;102612.34;5002522;23;19931;-86
2021/12/13 07:58:34;;;;;;;;;;;;;;;16.95;54.11;102602.13;4949493;29;19923;-90
2021/12/13 08:01:09;;;;;;;;;;;;;;;16.87;53.77;102604.34;4945410;29;19919;-92
2021/12/13 08:03:58;;;;;;;;;;;;;;;16.61;54.70;102603.66;4942944;29;19903;-93
2021/12/13 08:06:31;;;;;;;;;;;;;;;17.38;52.59;102604.66;4941099;29;19926;-93
2021/12/13 08:09:03;;;;;;;;;;;;;;;17.12;53.72;102607.72;4944601;29;20285;-91
2021/12/13 08:11:35;;;;;;;;;;;;;;;17.10;53.64;102608.72;4942264;29;19923;-89
2021/12/13 08:14:02;;;;;;;;;;;;;;;17.19;52.86;102608.28;4942195;29;19915;-88
2021/12/13 08:16:47;;;;;;;;;;;;;;;17.13;52.88;102609.47;4927258;29;19923;-90
2021/12/13 08:19:25;;;;;;;;;;;;;;;17.41;52.52;102613.63;4925719;29;19942;-91
2021/12/13 08:21:56;;;;;;;;;;;;;;;16.84;54.40;102608.06;4942640;29;19919;-88
2021/12/13 08:24:39;;;;;;;;;;;;;;;16.58;53.83;102607.41;4941377;29;19919;-88
2021/12/13 08:27:09;;;;;;;;;;;;;;;16.48;55.10;102606.91;4940861;29;20396;-88
2021/12/13 08:29:36;;;;;;;;;;;;;;;16.52;54.60;102598.59;4940074;29;19919;-88
2021/12/13 08:32:07;;;;;;;;;;;;;;;16.38;55.25;102604.66;4941173;29;19922;-89
2021/12/13 08:34:39;;;;;;;;;;;;;;;16.12;56.51;102612.13;4941645;29;19950;-89
2021/12/13 08:37:23;;;;;;;;;;;;;;;15.85;57.17;102615.09;4941590;29;20444;-90
2021/12/13 08:39:54;;;;;;;;;;;;;;;16.49;54.63;102605.09;4941330;29;19923;-92
2021/12/13 08:42:21;;;;;;;;;;;;;;;16.12;56.22;102609.41;4941943;29;19922;-90
2021/12/13 08:44:59;;;;;;;;;;;;;;;16.50;55.82;102615.06;4941202;28;19923;-90
2021/12/13 08:47:30;;;;;;;;;;;;;;;16.43;55.71;102614.44;4942936;29;19915;-88
2021/12/13 08:49:58;;;;;;;;;;;;;;;17.45;53.06;102620.75;4943636;29;19919;-89
2021/12/13 08:52:35;;;;;;;;;;;;;;;16.42;56.19;102626.31;4941021;29;19982;-88
2021/12/13 08:55:06;;;;;;;;;;;;;;;16.61;54.47;102629.13;4940413;29;20293;-91
2021/12/13 08:57:47;;;;;;;;;;;;;;;16.48;56.70;102628.75;4941034;29;19926;-93
2021/12/13 09:00:12;;;;;;;;;;;;;;;16.69;55.29;102630.63;4942251;29;19919;-90
2021/12/13 09:02:41;;;;;;;;;;;;;;;17.03;54.65;102640.97;4940298;29;19925;-87
2021/12/13 09:05:06;;;;;;;;;;;;;;;16.74;54.68;102642.22;4922162;29;19926;-88
2021/12/13 09:07:31;;;;;;;;;;;;;;;17.02;53.37;102651.97;4940814;29;19915;-89
2021/12/13 09:09:57;;;;;;;;;;;;;;;16.41;55.84;102649.13;4941906;29;19926;-90
2021/12/13 09:12:31;;;;;;;;;;;;;;;16.48;55.63;102660.66;4949714;29;19907;-90
2021/12/13 09:14:57;;;;;;;;;;;;;;;17.00;54.76;102669.31;4955177;28;19927;-91
2021/12/13 09:17:24;;;;;;;;;;;;;;;16.86;53.94;102673.59;4952640;29;19922;-90
2021/12/13 09:20:09;;;;;;;;;;;;;;;18.76;49.43;102674.38;4959482;28;19907;-94
2021/12/13 09:22:37;;;;;;;;;;;;;;;17.79;51.21;102683.91;4958886;28;19923;-92
2021/12/13 09:25:09;;;;;;;;;;;;;;;17.04;53.54;102686.47;4952019;29;19903;-91
2021/12/13 09:27:55;;;;;;;;;;;;;;;18.53;49.66;102691.19;4949868;29;19924;-91
2021/12/13 09:30:20;;;;;;;;;;;;;;;17.94;50.86;102687.75;4930325;29;19919;-92
2021/12/13 09:32:54;;;;;;;;;;;;;;;18.51;49.55;102693.09;4945639;29;19919;-88
2021/12/13 09:35:22;;;;;;;;;;;;;;;17.77;51.57;102691.28;4926267;29;19919;-93
2021/12/13 09:37:48;;;;;;;;;;;;;;;17.98;50.15;102690.28;4926396;29;19927;-93
2021/12/13 09:40:17;;;;;;;;;;;;;;;18.99;48.21;102687.88;4925559;29;19919;-93
2021/12/13 09:42:55;;;;;;;;;;;;;;;18.21;48.90;102701.94;4926518;29;20013;-92
2021/12/13 09:45:29;;;;;;;;;;;;;;;17.78;51.69;102704.88;4925341;29;19918;-96
2021/12/13 09:47:55;;;;;;;;;;;;;;;17.26;53.01;102708.25;4926263;29;19919;-93
2021/12/13 09:50:23;;;;;;;;;;;;;;;17.56;52.78;102695.94;4925026;29;20416;-93
2021/12/13 09:52:51;;;;;;;;;;;;;;;17.37;53.51;102707.75;4948250;29;19922;-92
2021/12/13 09:55:21;;;;;;;;;;;;;;;17.66;52.10;102711.88;4935032;29;19930;-93
2021/12/13 09:57:50;;;;;;;;;;;;;;;17.85;51.12;102710.97;4939790;29;19923;-93
2021/12/13 10:00:40;;;;;;;;;;;;;;;18.09;51.26;102702.53;4930925;29;19958;-92
2021/12/13 10:03:12;;;;;;;;;;;;;;;17.00;53.71;102702.13;4938394;29;19919;-95
2021/12/13 10:05:40;;;;;;;;;;;;;;;17.32;52.94;102702.50;4936485;29;19925;-89
2021/12/13 10:08:07;;;;;;;;;;;;;;;16.96;54.63;102702.34;4933046;29;19926;-91
2021/12/13 10:10:40;;;;;;;;;;;;;;;17.56;52.34;102706.88;4923915;29;19922;-93
2021/12/13 10:13:07;;;;;;;;;;;;;;;17.01;54.94;102700.28;4927641;29;19927;-92
2021/12/13 10:15:38;;;;;;;;;;;;;;;17.64;52.30;102701.94;4940112;29;19923;-92
2021/12/13 10:18:07;;;;;;;;;;;;;;;16.90;54.27;102708.97;4953443;29;19919;-90
2021/12/13 10:20:42;;;;;;;;;;;;;;;18.02;51.03;102708.31;4956406;29;19978;-92
2021/12/13 10:23:10;;;;;;;;;;;;;;;17.33;53.64;102715.22;4952646;29;19990;-92
2021/12/13 10:25:39;;;;;;;;;;;;;;;17.64;52.03;102700.09;4934190;29;19927;-91
2021/12/13 10:28:07;;;;;;;;;;;;;;;17.37;53.21;102705.03;4917816;29;20276;-91
2021/12/13 10:30:36;;;;;;;;;;;;;;;17.77;52.49;102699.50;4939287;29;20001;-92
2021/12/13 10:33:02;;;;;;;;;;;;;;;18.11;50.97;102700.63;4938481;29;19915;-91
2021/12/13 10:35:29;;;;;;;;;;;;;;;16.83;54.36;102701.94;4930826;29;19946;-91
2021/12/13 10:37:59;;;;;;;;;;;;;;;17.27;53.47;102704.56;4940529;29;19919;-91
2021/12/13 10:40:34;;;;;;;;;;;;;;;17.95;51.65;102703.22;4925769;29;19925;-91
2021/12/13 10:43:06;;;;;;;;;;;;;;;17.00;53.96;102706.72;4926813;29;19977;-93
2021/12/13 10:45:34;;;;;;;;;;;;;;;17.28;53.57;102700.84;4923448;29;19922;-91
2021/12/13 10:48:01;;;;;;;;;;;;;;;17.50;52.95;102700.75;4936403;29;19930;-91
2021/12/13 10:50:30;;;;;;;;;;;;;;;17.96;51.75;102708.63;4940677;29;19920;-92
2021/12/13 10:52:56;;;;;;;;;;;;;;;17.13;53.98;102702.44;4926656;29;19962;-92
2021/12/13 10:55:24;;;;;;;;;;;;;;;16.86;54.31;102695.47;4936784;29;19975;-90
2021/12/13 10:57:50;;;;;;;;;;;;;;;17.70;52.59;102701.66;4941321;29;19927;-91
2021/12/13 11:00:21;;;;;;;;;;;;;;;17.61;53.04;102694.75;4927893;29;19910;-92
2021/12/13 11:02:51;;;;;;;;;;;;;;;16.66;55.04;102703.56;4941778;28;20054;-92
2021/12/13 11:05:18;;;;;;;;;;;;;;;17.07;54.70;102705.47;4932867;29;19966;-91
2021/12/13 11:07:44;;;;;;;;;;;;;;;17.21;54.32;102699.38;4926557;29;19950;-92
2021/12/13 11:10:12;;;;;;;;;;;;;;;16.26;56.43;102699.84;4931406;29;19930;-91
2021/12/13 11:12:39;;;;;;;;;;;;;;;17.13;54.56;102701.56;4928280;29;19919;-91
2021/12/13 11:15:08;;;;;;;;;;;;;;;17.09;53.89;102699.91;4933466;29;19919;-92
2021/12/13 11:17:34;;;;;;;;;;;;;;;17.13;54.60;102698.84;4942463;29;19919;-92
2021/12/13 11:20:03;;;;;;;;;;;;;;;17.03;54.44;102702.94;4933691;28;19930;-91
2021/12/13 11:22:29;;;;;;;;;;;;;;;17.51;52.96;102702.53;4940418;29;19989;-92
2021/12/13 11:24:57;;;;;;;;;;;;;;;16.91;54.74;102702.56;4925077;29;19970;-92
2021/12/13 11:27:31;;;;;;;;;;;;;;;17.27;53.05;102699.09;4937653;29;19949;-93
2021/12/13 11:29:56;;;;;;;;;;;;;;;17.69;52.12;102692.56;4932126;29;19919;-93
2021/12/13 11:32:40;;;;;;;;;;;;;;;16.75;55.45;102696.81;4938149;29;19929;-92
2021/12/13 11:35:11;;;;;;;;;;;;;;;17.90;51.58;102700.69;4926718;29;19918;-91
2021/12/13 11:37:45;;;;;;;;;;;;;;;17.58;52.50;102691.28;4928719;29;19930;-92
2021/12/13 11:40:29;;;;;;;;;;;;;;;17.61;52.52;102693.88;4934118;29;19925;-89
2021/12/13 11:43:17;;;;;;;;;;;;;;;17.22;53.15;102701.13;4944598;29;19926;-92
2021/12/13 11:46:01;;;;;;;;;;;;;;;17.36;53.63;102698.66;4943763;29;19919;-90
2021/12/13 11:48:50;;;;;;;;;;;;;;;17.45;53.28;102696.44;4955499;28;20316;-94
2021/12/13 11:51:37;;;;;;;;;;;;;;;17.54;52.48;102690.53;4935925;29;19918;-91
2021/12/13 11:54:02;;;;;;;;;;;;;;;17.85;52.06;102700.91;4933962;29;19947;-95
2021/12/13 11:56:46;;;;;;;;;;;;;;;17.90;51.95;102697.97;4932941;29;19911;-95
2021/12/13 11:59:27;;;;;;;;;;;;;;;17.70;52.50;102688.84;5000534;23;19926;-94
2021/12/13 12:01:57;;;;;;;;;;;;;;;17.50;53.08;102688.94;4971973;28;19902;-92
2021/12/13 12:04:44;;;;;;;;;;;;;;;17.59;52.47;102685.75;4975969;28;19973;-88
2021/12/13 12:07:12;;;;;;;;;;;;;;;17.24;53.32;102691.03;4957406;28;19925;-89
2021/12/13 12:09:59;;;;;;;;;;;;;;;17.58;52.84;102683.97;4959916;29;19918;-88
2021/12/13 12:13:03;;;;;;;;;;;;;;;16.93;54.38;102684.22;4947944;28;19958;-90
2021/12/13 12:15:29;;;;;;;;;;;;;;;18.04;51.12;102684.50;4898626;29;19923;-89
2021/12/13 12:17:55;;;;;;;;;;;;;;;17.30;52.70;102687.09;4916408;29;19929;-86
2021/12/13 12:20:32;;;;;;;;;;;;;;;17.33;53.47;102693.34;4935819;28;19930;-88
2021/12/13 12:23:02;;;;;;;;;;;;;;;17.08;52.87;102684.50;4952702;28;19922;-91
2021/12/13 12:25:29;;;;;;;;;;;;;;;17.87;51.18;102674.34;4958104;28;19933;-90
2021/12/13 12:28:03;;;;;;;;;;;;;;;17.61;52.45;102681.06;4971334;28;19911;-91
2021/12/13 12:30:31;;;;;;;;;;;;;;;17.64;51.91;102680.94;4980985;28;19914;-93
2021/12/13 12:32:57;;;;;;;;;;;;;;;17.75;52.34;102687.72;4957208;29;19926;-91
2021/12/13 12:35:43;;;;;;;;;;;;;;;18.09;50.92;102681.53;4951038;29;20323;-92
2021/12/13 12:38:18;;;;;;;;;;;;;;;17.32;53.23;102683.34;4946219;29;19926;-91
2021/12/13 12:41:01;;;;;;;;;;;;;;;17.36;52.72;102682.25;4944455;29;20037;-91
2021/12/13 12:43:31;;;;;;;;;;;;;;;17.92;51.42;102679.63;4944756;29;19914;-90
2021/12/13 12:46:01;;;;;;;;;;;;;;;18.28;50.36;102681.47;4944310;29;19930;-92
2021/12/13 12:48:29;;;;;;;;;;;;;;;17.88;51.42;102687.06;4945099;29;20373;-90
2021/12/13 12:51:01;;;;;;;;;;;;;;;17.83;52.09;102688.22;4945327;29;19951;-95
2021/12/13 12:53:29;;;;;;;;;;;;;;;17.43;52.60;102688.31;4944716;29;19918;-89
2021/12/13 12:55:57;;;;;;;;;;;;;;;17.44;52.81;102686.47;4944586;29;19918;-91
2021/12/13 12:58:27;;;;;;;;;;;;;;;18.22;50.74;102687.25;4950188;28;19969;-93
2021/12/13 13:00:53;;;;;;;;;;;;;;;18.56;49.33;102680.06;4968247;28;19926;-90
2021/12/13 13:03:24;;;;;;;;;;;;;;;18.64;49.16;102679.66;4951092;29;19922;-91
2021/12/13 13:05:50;;;;;;;;;;;;;;;17.87;50.88;102676.19;4954735;28;19922;-92
2021/12/13 13:08:29;;;;;;;;;;;;;;;17.76;51.40;102686.78;4973014;29;19989;-88
2021/12/13 13:13:40;;;;;;;;;;;;;;;17.75;51.94;102679.53;4972054;29;19924;-88
2021/12/13 13:16:06;;;;;;;;;;;;;;;17.87;51.37;102670.69;4952382;28;19966;-94
2021/12/13 13:18:31;;;;;;;;;;;;;;;17.03;53.38;102672.84;4952984;29;19929;-84